createdAt,value
2023-05-06T00:02:19.079Z,3.00
2023-05-06T00:04:47.895Z,3.20
2023-05-06T00:07:17.093Z,3.40
2023-05-06T00:09:45.455Z,3.00
2023-05-06T00:12:14.450Z,2.70
2023-05-06T00:14:42.748Z,3.10
2023-05-06T00:17:11.294Z,2.70
2023-05-06T00:19:40.167Z,2.90
2023-05-06T00:22:08.454Z,2.90
2023-05-06T00:24:36.726Z,3.20
2023-05-06T00:27:05.074Z,3.00
2023-05-06T00:29:33.461Z,2.70
2023-05-06T00:32:01.904Z,2.80
2023-05-06T00:34:30.398Z,2.90
2023-05-06T00:36:58.757Z,3.20
2023-05-06T00:39:27.049Z,3.30
2023-05-06T00:42:00.158Z,2.90
2023-05-06T00:44:29.566Z,2.80
2023-05-06T00:46:59.625Z,2.70
2023-05-06T00:49:29.555Z,2.90
2023-05-06T00:51:59.089Z,2.50
2023-05-06T00:54:27.954Z,2.30
2023-05-06T00:56:56.310Z,2.60
2023-05-06T00:59:24.746Z,2.40
2023-05-06T01:01:54.114Z,2.60
2023-05-06T01:04:24.199Z,2.40
2023-05-06T01:09:30.023Z,2.30
2023-05-06T01:12:17.704Z,2.70
2023-05-06T01:15:11.904Z,2.60
2023-05-06T01:17:45.049Z,2.90
2023-05-06T01:20:15.456Z,2.70
2023-05-06T01:22:44.511Z,3.00
2023-05-06T01:25:23.077Z,2.50
2023-05-06T01:27:51.398Z,2.70
2023-05-06T01:30:22.027Z,2.70
2023-05-06T01:33:11.706Z,2.90
2023-05-06T01:35:40.152Z,2.90
2023-05-06T01:38:36.390Z,3.20
2023-05-06T01:41:05.494Z,2.80
2023-05-06T01:43:41.367Z,3.00
2023-05-06T01:46:22.088Z,2.90
2023-05-06T01:48:54.340Z,3.30
2023-05-06T01:51:25.039Z,2.80
2023-05-06T01:53:53.705Z,3.00
2023-05-06T01:56:22.175Z,3.30
2023-05-06T01:58:50.750Z,2.90
2023-05-06T02:01:19.124Z,3.40
2023-05-06T02:03:47.585Z,2.90
2023-05-06T02:06:16.497Z,2.90
2023-05-06T02:08:45.667Z,3.20
2023-05-06T02:11:19.058Z,3.00
2023-05-06T02:13:49.748Z,3.40
2023-05-06T02:16:18.485Z,2.80
2023-05-06T02:18:47.007Z,3.50
2023-05-06T02:21:15.390Z,3.70
2023-05-06T02:23:44.067Z,2.60
2023-05-06T02:26:12.356Z,3.30
2023-05-06T02:28:40.786Z,3.20
2023-05-06T02:31:09.136Z,3.10
2023-05-06T02:33:37.478Z,3.30
2023-05-06T02:36:06.276Z,3.10
2023-05-06T02:38:35.678Z,3.30
2023-05-06T02:41:04.146Z,2.90
2023-05-06T02:43:32.489Z,3.20
2023-05-06T02:46:00.862Z,2.60
2023-05-06T02:48:29.396Z,2.80
2023-05-06T02:50:58.599Z,3.00
2023-05-06T02:53:27.191Z,3.00
2023-05-06T02:55:55.673Z,2.90
2023-05-06T02:58:24.141Z,2.80
2023-05-06T03:00:52.547Z,3.00
2023-05-06T03:03:22.700Z,3.60
2023-05-06T03:05:51.058Z,3.50
2023-05-06T03:08:19.531Z,3.60
2023-05-06T03:10:48.293Z,3.40
2023-05-06T03:13:17.751Z,3.30
2023-05-06T03:15:52.270Z,3.70
2023-05-06T03:18:21.012Z,3.60
2023-05-06T03:20:49.778Z,3.80
2023-05-06T03:23:18.346Z,4.10
2023-05-06T03:25:47.199Z,3.60
2023-05-06T03:28:15.797Z,4.10
2023-05-06T03:30:44.628Z,4.20
2023-05-06T03:33:13.743Z,4.10
2023-05-06T03:35:43.271Z,3.50
2023-05-06T03:38:11.660Z,3.50
2023-05-06T03:40:46.244Z,4.10
2023-05-06T03:43:15.155Z,4.10
2023-05-06T03:45:44.098Z,3.90
2023-05-06T03:48:12.480Z,4.00
2023-05-06T03:50:42.503Z,3.80
2023-05-06T03:53:10.955Z,3.60
2023-05-06T03:55:40.568Z,3.70
2023-05-06T03:58:09.010Z,3.90
2023-05-06T04:00:37.825Z,3.30
2023-05-06T04:03:06.314Z,4.50
2023-05-06T04:05:41.552Z,3.80
2023-05-06T04:08:09.972Z,3.70
2023-05-06T04:10:41.539Z,3.30
2023-05-06T04:13:18.065Z,3.40
2023-05-06T04:15:47.499Z,3.10
2023-05-06T04:18:20.553Z,3.30
2023-05-06T04:20:56.912Z,3.10
2023-05-06T04:23:25.814Z,3.00
2023-05-06T04:25:54.348Z,2.90
2023-05-06T04:28:23.690Z,3.00
2023-05-06T04:30:53.045Z,3.10
2023-05-06T04:33:25.227Z,3.30
2023-05-06T04:35:54.448Z,3.10
2023-05-06T04:38:25.860Z,3.20
2023-05-06T04:40:55.592Z,3.40
2023-05-06T04:43:24.098Z,3.50
2023-05-06T04:45:55.409Z,3.50
2023-05-06T04:48:27.062Z,3.70
2023-05-06T04:53:25.600Z,4.00
2023-05-06T04:55:55.790Z,4.60
2023-05-06T04:58:24.346Z,5.50
2023-05-06T05:00:53.031Z,5.30
2023-05-06T05:03:21.697Z,5.20
2023-05-06T05:05:50.205Z,5.00
2023-05-06T05:08:20.353Z,4.30
2023-05-06T05:10:48.948Z,4.80
2023-05-06T05:13:21.608Z,5.00
2023-05-06T05:15:50.226Z,5.50
2023-05-06T05:18:18.718Z,4.60
2023-05-06T05:20:47.404Z,4.80
2023-05-06T05:23:15.774Z,6.40
2023-05-06T05:25:44.668Z,5.90
2023-05-06T05:28:13.485Z,4.80
2023-05-06T05:30:42.926Z,5.40
2023-05-06T05:33:11.362Z,5.40
2023-05-06T05:35:40.066Z,4.60
2023-05-06T05:38:09.341Z,5.30
2023-05-06T05:40:39.343Z,6.00
2023-05-06T05:43:08.351Z,5.20
2023-05-06T05:45:39.142Z,6.00
2023-05-06T05:48:07.731Z,5.70
2023-05-06T05:50:36.662Z,5.40
2023-05-06T05:53:06.247Z,5.00
2023-05-06T05:55:35.266Z,7.30
2023-05-06T05:58:03.725Z,5.40
2023-05-06T06:00:32.858Z,6.20
2023-05-06T06:03:05.073Z,6.40
2023-05-06T06:05:33.707Z,6.80
2023-05-06T06:08:03.780Z,6.70
2023-05-06T06:10:32.757Z,6.10
2023-05-06T06:13:03.249Z,6.20
2023-05-06T06:15:32.636Z,6.70
2023-05-06T06:18:02.334Z,5.40
2023-05-06T06:20:31.953Z,6.40
2023-05-06T06:23:00.845Z,6.00
2023-05-06T06:25:29.256Z,6.70
2023-05-06T06:27:57.689Z,6.40
2023-05-06T06:30:26.203Z,7.10
2023-05-06T06:32:55.905Z,6.90
2023-05-06T06:35:25.052Z,6.80
2023-05-06T06:37:54.597Z,6.80
2023-05-06T06:40:23.180Z,7.50
2023-05-06T06:42:51.561Z,6.90
2023-05-06T06:45:40.218Z,7.00
2023-05-06T06:48:08.577Z,7.10
2023-05-06T06:50:36.889Z,6.40
2023-05-06T06:53:06.343Z,7.20
2023-05-06T06:55:35.083Z,7.70
2023-05-06T06:58:03.481Z,7.40
2023-05-06T07:00:31.919Z,7.20
2023-05-06T07:03:00.472Z,6.60
2023-05-06T07:05:28.870Z,6.90
2023-05-06T07:07:57.296Z,6.20
2023-05-06T07:10:25.989Z,5.70
2023-05-06T07:12:54.455Z,6.20
2023-05-06T07:15:23.021Z,6.00
2023-05-06T07:17:51.685Z,5.70
2023-05-06T07:20:20.077Z,4.80
2023-05-06T07:22:48.376Z,4.50
2023-05-06T07:25:16.784Z,3.90
2023-05-06T07:27:45.202Z,3.90
2023-05-06T07:30:13.928Z,3.40
2023-05-06T07:32:43.651Z,2.60
2023-05-06T07:35:12.284Z,2.70
2023-05-06T07:37:40.958Z,7.00
2023-05-06T07:40:09.602Z,4.30
2023-05-06T07:42:37.877Z,3.90
2023-05-06T07:45:06.978Z,2.30
2023-05-06T07:47:35.965Z,2.40
2023-05-06T07:50:06.955Z,2.00
2023-05-06T07:52:35.399Z,2.30
2023-05-06T07:55:05.129Z,2.40
2023-05-06T07:57:33.470Z,2.30
2023-05-06T08:00:02.026Z,2.30
2023-05-06T08:02:32.198Z,2.50
2023-05-06T08:05:00.787Z,2.70
2023-05-06T08:07:29.057Z,2.50
2023-05-06T08:09:57.362Z,2.50
2023-05-06T08:12:25.682Z,2.50
2023-05-06T08:14:55.294Z,2.30
2023-05-06T08:17:24.183Z,2.10
2023-05-06T08:19:52.730Z,2.40
2023-05-06T08:22:21.177Z,2.30
2023-05-06T08:24:49.506Z,2.20
2023-05-06T08:27:17.778Z,2.30
2023-05-06T08:29:46.224Z,2.30
2023-05-06T08:32:14.577Z,2.10
2023-05-06T08:34:42.919Z,2.20
2023-05-06T08:37:11.311Z,2.50
2023-05-06T08:39:39.880Z,2.60
2023-05-06T08:42:11.875Z,2.60
2023-05-06T08:44:40.295Z,2.30
2023-05-06T08:47:08.816Z,2.20
2023-05-06T08:49:37.548Z,2.40
2023-05-06T08:52:06.969Z,2.80
2023-05-06T08:54:36.664Z,2.60
2023-05-06T08:57:06.629Z,3.70
2023-05-06T08:59:36.476Z,2.80
2023-05-06T09:02:05.476Z,2.70
2023-05-06T09:04:34.469Z,2.40
2023-05-06T09:07:02.866Z,2.30
2023-05-06T09:09:31.324Z,2.50
2023-05-06T09:12:01.950Z,2.20
2023-05-06T09:16:58.489Z,2.50
2023-05-06T09:19:26.915Z,2.00
2023-05-06T09:21:55.207Z,2.20
2023-05-06T09:24:24.087Z,2.30
2023-05-06T09:26:55.560Z,2.00
2023-05-06T09:29:23.972Z,2.50
2023-05-06T09:31:54.267Z,2.10
2023-05-06T09:34:22.823Z,2.40
2023-05-06T09:36:53.818Z,2.10
2023-05-06T09:39:26.613Z,2.40
2023-05-06T09:41:55.232Z,2.10
2023-05-06T09:44:24.705Z,2.10
2023-05-06T09:46:53.231Z,2.40
2023-05-06T09:49:22.166Z,2.10
2023-05-06T09:51:51.839Z,2.10
2023-05-06T09:54:21.125Z,2.20
2023-05-06T09:56:50.848Z,2.20
2023-05-06T09:59:21.311Z,2.30
2023-05-06T10:01:50.426Z,2.00
2023-05-06T10:04:21.392Z,2.20
2023-05-06T10:06:53.999Z,2.30
2023-05-06T10:09:25.139Z,1.90
2023-05-06T10:11:54.584Z,2.10
2023-05-06T10:14:22.963Z,2.10
2023-05-06T10:16:52.264Z,2.00
2023-05-06T10:19:27.408Z,1.90
2023-05-06T10:22:05.542Z,1.70
2023-05-06T10:24:42.000Z,2.00
2023-05-06T10:27:12.519Z,2.00
2023-05-06T10:29:43.175Z,1.70
2023-05-06T10:32:11.888Z,2.00
2023-05-06T10:34:50.395Z,2.00
2023-05-06T10:37:19.644Z,1.90
2023-05-06T10:39:48.748Z,2.10
2023-05-06T10:42:17.484Z,1.80
2023-05-06T10:44:59.416Z,1.70
2023-05-06T10:47:27.926Z,1.90
2023-05-06T10:50:18.936Z,1.90
2023-05-06T10:52:50.143Z,2.00
2023-05-06T10:55:38.000Z,2.00
2023-05-06T10:58:15.643Z,2.00
2023-05-06T11:00:55.589Z,2.50
2023-05-06T11:03:24.545Z,2.30
2023-05-06T11:05:53.056Z,4.30
2023-05-06T11:08:26.588Z,3.80
2023-05-06T11:10:55.088Z,2.00
2023-05-06T11:13:28.589Z,1.90
2023-05-06T11:15:58.138Z,2.00
2023-05-06T11:18:34.056Z,2.20
2023-05-06T11:21:07.571Z,2.20
2023-05-06T11:23:46.864Z,2.10
2023-05-06T11:26:16.089Z,1.90
2023-05-06T11:28:46.335Z,1.90
2023-05-06T11:31:15.809Z,2.00
2023-05-06T11:33:55.262Z,2.00
2023-05-06T11:36:23.642Z,2.00
2023-05-06T11:38:53.216Z,1.80
2023-05-06T11:41:23.330Z,2.10
2023-05-06T11:43:53.613Z,2.30
2023-05-06T11:46:25.142Z,2.30
2023-05-06T11:48:53.499Z,2.30
2023-05-06T11:51:22.766Z,2.00
2023-05-06T11:53:52.418Z,2.00
2023-05-06T11:56:20.912Z,2.20
2023-05-06T11:58:49.217Z,2.20
2023-05-06T12:01:17.578Z,2.00
2023-05-06T12:03:46.182Z,2.30
2023-05-06T12:06:14.696Z,2.20
2023-05-06T12:08:43.165Z,2.30
2023-05-06T12:11:11.962Z,2.00
2023-05-06T12:13:40.823Z,2.20
2023-05-06T12:16:09.762Z,2.30
2023-05-06T12:18:38.550Z,2.10
2023-05-06T12:21:07.470Z,2.10
2023-05-06T12:23:35.893Z,2.00
2023-05-06T12:26:09.274Z,2.00
2023-05-06T12:28:37.760Z,2.20
2023-05-06T12:31:23.019Z,2.10
2023-05-06T12:33:51.552Z,2.00
2023-05-06T12:36:19.924Z,2.10
2023-05-06T12:38:51.788Z,3.80
2023-05-06T12:41:21.413Z,3.00
2023-05-06T12:43:49.956Z,2.20
2023-05-06T12:46:18.789Z,2.50
2023-05-06T12:48:56.942Z,3.80
2023-05-06T12:51:25.658Z,5.10
2023-05-06T12:53:54.387Z,2.30
2023-05-06T12:56:23.113Z,1.90
2023-05-06T12:59:02.400Z,2.10
2023-05-06T13:01:31.694Z,4.80
2023-05-06T13:04:00.749Z,2.10
2023-05-06T13:06:29.113Z,4.80
2023-05-06T13:08:57.436Z,2.50
2023-05-06T13:11:26.094Z,2.90
2023-05-06T13:13:54.365Z,2.00
2023-05-06T13:16:22.804Z,2.10
2023-05-06T13:18:51.342Z,2.10
2023-05-06T13:21:19.700Z,3.80
2023-05-06T13:23:48.515Z,2.10
2023-05-06T13:26:17.892Z,3.80
2023-05-06T13:28:46.417Z,2.40
2023-05-06T13:31:14.741Z,2.20
2023-05-06T13:33:43.160Z,2.10
2023-05-06T13:36:11.621Z,3.60
2023-05-06T13:38:40.210Z,2.60
2023-05-06T13:41:08.992Z,3.10
2023-05-06T13:43:37.708Z,2.70
2023-05-06T13:46:06.156Z,1.90
2023-05-06T13:48:34.494Z,2.00
2023-05-06T13:51:02.850Z,2.70
2023-05-06T13:53:31.339Z,2.20
2023-05-06T13:55:59.735Z,11.00
2023-05-06T13:58:28.090Z,7.90
2023-05-06T14:00:56.464Z,10.10
2023-05-06T14:03:24.850Z,20.10
2023-05-06T14:05:53.383Z,159.60
2023-05-06T14:08:21.705Z,64.70
2023-05-06T14:10:50.161Z,124.70
2023-05-06T14:13:18.519Z,81.90
2023-05-06T14:15:47.148Z,5.40
2023-05-06T14:18:15.999Z,11.40
2023-05-06T14:20:44.357Z,5.70
2023-05-06T14:23:12.737Z,6.00
2023-05-06T14:25:41.214Z,4.00
2023-05-06T14:28:11.100Z,5.60
2023-05-06T14:30:40.074Z,2.30
2023-05-06T14:33:11.750Z,3.50
2023-05-06T14:35:42.039Z,9.10
2023-05-06T14:38:11.017Z,2.40
2023-05-06T14:40:39.369Z,55.40
2023-05-06T14:43:08.074Z,24.10
2023-05-06T14:45:36.545Z,37.20
2023-05-06T14:48:05.561Z,29.80
2023-05-06T14:50:34.755Z,11.60
2023-05-06T14:53:04.125Z,53.80
2023-05-06T14:55:32.640Z,6.00
2023-05-06T14:58:03.736Z,6.90
2023-05-06T15:00:32.113Z,3.20
2023-05-06T15:03:00.701Z,5.50
2023-05-06T15:05:29.050Z,3.70
2023-05-06T15:07:57.434Z,3.40
2023-05-06T15:10:25.847Z,10.50
2023-05-06T15:12:54.318Z,31.30
2023-05-06T15:15:22.694Z,103.00
2023-05-06T15:17:52.530Z,231.10
2023-05-06T15:20:21.011Z,66.70
2023-05-06T15:22:49.471Z,122.10
2023-05-06T15:25:33.456Z,147.30
2023-05-06T15:28:04.147Z,394.60
2023-05-06T15:30:32.433Z,326.90
2023-05-06T15:33:02.858Z,144.30
2023-05-06T15:35:32.148Z,27.10
2023-05-06T15:38:03.577Z,4.90
2023-05-06T15:40:31.987Z,2.90
2023-05-06T15:43:00.510Z,2.50
2023-05-06T15:45:28.947Z,2.10
2023-05-06T15:47:57.786Z,2.40
2023-05-06T15:52:59.985Z,2.50
2023-05-06T15:55:28.818Z,2.40
2023-05-06T15:57:59.894Z,2.40
2023-05-06T16:00:29.371Z,2.70
2023-05-06T16:02:57.856Z,3.10
2023-05-06T16:05:26.264Z,3.00
2023-05-06T16:07:56.136Z,3.30
2023-05-06T16:10:24.506Z,3.90
2023-05-06T16:12:52.935Z,5.40
2023-05-06T16:15:21.456Z,3.50
2023-05-06T16:17:49.756Z,3.10
2023-05-06T16:20:18.048Z,3.20
2023-05-06T16:22:50.730Z,4.10
2023-05-06T16:25:19.203Z,3.90
2023-05-06T16:27:47.551Z,3.30
2023-05-06T16:30:16.144Z,3.30
2023-05-06T16:32:44.560Z,4.10
2023-05-06T16:35:13.088Z,4.70
2023-05-06T16:37:42.735Z,4.10
2023-05-06T16:40:15.097Z,4.80
2023-05-06T16:42:43.446Z,3.60
2023-05-06T16:45:12.007Z,3.90
2023-05-06T16:47:41.439Z,4.10
2023-05-06T16:50:11.155Z,3.40
2023-05-06T16:52:39.950Z,4.00
2023-05-06T16:55:08.718Z,4.40
2023-05-06T16:57:37.853Z,4.50
2023-05-06T17:00:12.167Z,4.00
2023-05-06T17:02:41.275Z,4.30
2023-05-06T17:05:10.144Z,4.20
2023-05-06T17:07:39.053Z,5.10
2023-05-06T17:10:07.834Z,4.30
2023-05-06T17:12:36.583Z,5.20
2023-05-06T17:15:05.870Z,5.00
2023-05-06T17:17:34.994Z,4.90
2023-05-06T17:20:05.356Z,4.30
2023-05-06T17:22:33.957Z,5.30
2023-05-06T17:25:03.743Z,5.90
2023-05-06T17:27:32.167Z,4.80
2023-05-06T17:30:01.567Z,4.40
2023-05-06T17:32:29.959Z,4.50
2023-05-06T17:34:58.350Z,4.40
2023-05-06T17:37:26.897Z,4.10
2023-05-06T17:39:55.642Z,3.90
2023-05-06T17:42:24.028Z,4.50
2023-05-06T17:44:52.395Z,4.20
2023-05-06T17:47:24.156Z,3.70
2023-05-06T17:49:53.357Z,4.30
2023-05-06T17:52:21.902Z,4.60
2023-05-06T17:55:01.445Z,4.60
2023-05-06T17:57:39.018Z,4.40
2023-05-06T18:00:08.078Z,4.40
2023-05-06T18:02:40.106Z,4.70
2023-05-06T18:05:09.024Z,5.00
2023-05-06T18:07:40.210Z,4.90
2023-05-06T18:10:09.045Z,5.00
2023-05-06T18:12:37.525Z,4.70
2023-05-06T18:15:06.668Z,4.70
2023-05-06T18:17:35.058Z,4.10
2023-05-06T18:20:05.348Z,3.70
2023-05-06T18:22:34.026Z,3.70
2023-05-06T18:25:04.464Z,3.80
2023-05-06T18:27:32.831Z,3.70
2023-05-06T18:30:01.327Z,3.30
2023-05-06T18:32:29.766Z,2.90
2023-05-06T18:34:58.507Z,3.00
2023-05-06T18:39:57.897Z,2.90
2023-05-06T18:42:27.652Z,3.00
2023-05-06T18:44:56.652Z,2.90
2023-05-06T18:47:25.941Z,8.00
2023-05-06T18:49:54.430Z,5.20
2023-05-06T18:52:22.795Z,3.40
2023-05-06T18:54:51.144Z,3.60
2023-05-06T18:57:23.379Z,3.10
2023-05-06T18:59:51.759Z,3.60
2023-05-06T19:02:20.078Z,3.00
2023-05-06T19:04:48.579Z,2.80
2023-05-06T19:07:16.904Z,3.00
2023-05-06T19:09:45.637Z,3.00
2023-05-06T19:12:15.287Z,3.00
2023-05-06T19:14:43.782Z,2.90
2023-05-06T19:17:12.110Z,3.20
2023-05-06T19:19:41.266Z,3.30
2023-05-06T19:22:09.629Z,3.50
2023-05-06T19:24:37.967Z,3.10
2023-05-06T19:27:06.278Z,3.20
2023-05-06T19:29:34.596Z,3.10
2023-05-06T19:32:02.932Z,3.00
2023-05-06T19:34:31.290Z,3.40
2023-05-06T19:36:59.724Z,2.80
2023-05-06T19:39:28.044Z,3.00
2023-05-06T19:41:56.413Z,3.40
2023-05-06T19:44:24.840Z,3.70
2023-05-06T19:46:56.194Z,3.40
2023-05-06T19:49:24.740Z,3.30
2023-05-06T19:51:53.146Z,4.10
2023-05-06T19:54:22.525Z,9.20
2023-05-06T19:56:50.998Z,4.80
2023-05-06T19:59:19.327Z,3.00
2023-05-06T20:01:47.783Z,2.60
2023-05-06T20:04:16.093Z,2.80
2023-05-06T20:06:44.651Z,2.80
2023-05-06T20:09:13.056Z,3.40
2023-05-06T20:11:41.427Z,3.30
2023-05-06T20:14:09.883Z,3.70
2023-05-06T20:16:38.972Z,3.30
2023-05-06T20:19:08.019Z,3.10
2023-05-06T20:21:36.389Z,2.70
2023-05-06T20:24:05.253Z,2.80
2023-05-06T20:26:33.645Z,2.90
2023-05-06T20:29:01.994Z,3.20
2023-05-06T20:31:30.565Z,3.90
2023-05-06T20:33:58.950Z,3.70
2023-05-06T20:36:27.532Z,3.60
2023-05-06T20:38:55.879Z,3.90
2023-05-06T20:41:24.215Z,3.10
2023-05-06T20:43:53.446Z,3.30
2023-05-06T20:46:21.914Z,2.70
2023-05-06T20:48:53.370Z,2.80
2023-05-06T20:51:21.873Z,3.20
2023-05-06T20:53:50.285Z,3.30
2023-05-06T20:56:24.979Z,2.80
2023-05-06T20:58:54.469Z,3.40
2023-05-06T21:01:24.172Z,3.60
2023-05-06T21:03:52.811Z,3.10
2023-05-06T21:06:21.289Z,3.80
2023-05-06T21:08:49.618Z,3.60
2023-05-06T21:11:18.013Z,3.70
2023-05-06T21:13:48.150Z,3.30
2023-05-06T21:16:17.234Z,2.80
2023-05-06T21:18:45.794Z,3.10
2023-05-06T21:21:14.241Z,3.70
2023-05-06T21:23:42.626Z,4.50
2023-05-06T21:26:12.807Z,3.80
2023-05-06T21:28:41.112Z,2.90
2023-05-06T21:31:09.486Z,2.80
2023-05-06T21:33:37.893Z,3.00
2023-05-06T21:36:06.466Z,2.80
2023-05-06T21:38:34.861Z,3.00
2023-05-06T21:41:03.598Z,2.80
2023-05-06T21:43:33.298Z,2.90
2023-05-06T21:46:04.235Z,3.10
2023-05-06T21:48:32.597Z,2.80
2023-05-06T21:51:04.471Z,2.60
2023-05-06T21:53:32.881Z,3.40
2023-05-06T21:56:01.262Z,3.50
2023-05-06T21:58:29.621Z,3.80
2023-05-06T22:00:57.950Z,3.40
2023-05-06T22:03:27.978Z,3.50
2023-05-06T22:05:57.190Z,3.50
2023-05-06T22:08:25.619Z,3.80
2023-05-06T22:10:54.054Z,4.10
2023-05-06T22:13:27.092Z,4.10
2023-05-06T22:15:55.639Z,4.10
2023-05-06T22:18:24.109Z,3.90
2023-05-06T22:20:56.680Z,4.00
2023-05-06T22:23:26.100Z,3.10
2023-05-06T22:25:54.488Z,3.70
2023-05-06T22:28:22.832Z,3.20
2023-05-06T22:30:51.253Z,3.60
2023-05-06T22:33:19.576Z,3.60
2023-05-06T22:35:47.965Z,3.80
2023-05-06T22:38:16.308Z,3.80
2023-05-06T22:40:44.721Z,4.50
2023-05-06T22:43:13.068Z,3.70
2023-05-06T22:45:41.390Z,3.60
2023-05-06T22:48:09.802Z,3.90
2023-05-06T22:50:38.270Z,4.20
2023-05-06T22:53:15.083Z,3.90
2023-05-06T22:55:45.467Z,3.80
2023-05-06T22:58:13.794Z,4.00
2023-05-06T23:00:43.550Z,4.30
2023-05-06T23:03:11.903Z,4.00
2023-05-06T23:05:41.268Z,3.90
2023-05-06T23:08:10.039Z,3.80
2023-05-06T23:10:38.470Z,4.20
2023-05-06T23:13:07.262Z,4.00
2023-05-06T23:15:36.499Z,4.90
2023-05-06T23:18:04.985Z,4.70
2023-05-06T23:20:33.377Z,4.40
2023-05-06T23:23:01.839Z,4.60
2023-05-06T23:25:30.197Z,4.50
2023-05-06T23:27:58.507Z,4.30
2023-05-06T23:30:26.844Z,5.10
2023-05-06T23:32:55.247Z,4.40
2023-05-06T23:35:23.634Z,4.90
2023-05-06T23:37:51.990Z,4.10
2023-05-06T23:40:20.275Z,4.70
2023-05-06T23:42:48.618Z,4.10
2023-05-06T23:45:17.123Z,4.80
2023-05-06T23:47:45.509Z,4.10
2023-05-06T23:50:14.399Z,4.10
2023-05-06T23:52:43.103Z,4.70
2023-05-06T23:55:12.378Z,4.50
2023-05-06T23:57:41.305Z,4.50
